createdAt,value
2023-01-08T00:01:50.431Z,3.66
2023-01-08T00:04:22.422Z,3.59
2023-01-08T00:06:54.359Z,3.63
2023-01-08T00:09:26.389Z,3.53
2023-01-08T00:11:58.298Z,3.66
2023-01-08T00:14:30.968Z,3.64
2023-01-08T00:17:04.828Z,3.48
2023-01-08T00:19:36.828Z,3.67
2023-01-08T00:22:08.862Z,3.69
2023-01-08T00:24:40.813Z,3.64
2023-01-08T00:27:12.764Z,3.69
2023-01-08T00:29:44.835Z,3.46
2023-01-08T00:32:16.826Z,3.55
2023-01-08T00:34:48.812Z,3.61
2023-01-08T00:37:21.024Z,3.49
2023-01-08T00:39:52.966Z,3.49
2023-01-08T00:42:24.933Z,3.53
2023-01-08T00:44:56.936Z,3.50
2023-01-08T00:47:28.913Z,3.62
2023-01-08T00:50:00.906Z,3.64
2023-01-08T00:52:32.842Z,3.63
2023-01-08T00:55:05.291Z,3.49
2023-01-08T00:57:39.287Z,3.57
2023-01-08T01:00:14.433Z,3.53
2023-01-08T01:02:46.533Z,3.73
2023-01-08T01:05:18.556Z,3.69
2023-01-08T01:07:50.655Z,3.60
2023-01-08T01:10:23.325Z,3.63
2023-01-08T01:12:55.260Z,3.66
2023-01-08T01:15:27.374Z,3.39
2023-01-08T01:17:59.315Z,3.59
2023-01-08T01:20:31.210Z,3.74
2023-01-08T01:23:04.522Z,3.56
2023-01-08T01:25:39.369Z,3.70
2023-01-08T01:28:11.313Z,3.66
2023-01-08T01:30:43.502Z,3.66
2023-01-08T01:33:15.493Z,3.69
2023-01-08T01:35:47.518Z,3.59
2023-01-08T01:38:19.479Z,3.54
2023-01-08T01:40:51.402Z,3.43
2023-01-08T01:43:42.016Z,3.37
2023-01-08T01:46:40.023Z,3.33
2023-01-08T01:49:18.248Z,3.21
2023-01-08T01:51:56.211Z,3.11
2023-01-08T01:54:30.115Z,3.01
2023-01-08T01:57:02.263Z,2.83
2023-01-08T01:59:34.189Z,2.68
2023-01-08T02:02:06.476Z,2.78
2023-01-08T02:04:38.525Z,2.71
2023-01-08T02:07:50.895Z,2.68
2023-01-08T02:10:30.109Z,2.63
2023-01-08T02:13:09.312Z,2.51
2023-01-08T02:15:53.249Z,2.53
2023-01-08T02:18:37.998Z,2.52
2023-01-08T02:21:13.719Z,2.32
2023-01-08T02:24:11.413Z,2.34
2023-01-08T02:26:46.191Z,2.32
2023-01-08T02:29:26.051Z,2.23
2023-01-08T02:31:58.307Z,2.13
2023-01-08T02:34:32.415Z,2.00
2023-01-08T02:37:04.860Z,2.22
2023-01-08T02:40:07.402Z,2.20
2023-01-08T02:42:57.323Z,2.21
2023-01-08T02:45:52.648Z,2.28
2023-01-08T02:48:24.704Z,2.35
2023-01-08T02:51:05.809Z,2.32
2023-01-08T02:53:43.327Z,2.37
2023-01-08T02:56:19.678Z,2.38
2023-01-08T02:58:54.293Z,2.39
2023-01-08T03:01:28.234Z,2.15
2023-01-08T03:04:06.972Z,2.46
2023-01-08T03:06:39.108Z,2.24
2023-01-08T03:09:12.151Z,2.35
2023-01-08T03:11:55.054Z,2.61
2023-01-08T03:14:35.535Z,2.52
2023-01-08T03:17:10.791Z,2.56
2023-01-08T03:19:49.238Z,2.68
2023-01-08T03:22:23.190Z,2.60
2023-01-08T03:24:57.119Z,2.57
2023-01-08T03:27:32.916Z,2.42
2023-01-08T03:30:08.056Z,2.63
2023-01-08T03:32:42.493Z,2.61
2023-01-08T03:35:18.412Z,2.61
2023-01-08T03:38:00.913Z,2.66
2023-01-08T03:40:39.904Z,2.63
2023-01-08T03:43:12.077Z,2.55
2023-01-08T03:45:52.006Z,2.69
2023-01-08T03:48:25.486Z,2.58
2023-01-08T03:50:57.526Z,2.53
2023-01-08T03:53:29.521Z,2.43
2023-01-08T03:56:01.438Z,2.52
2023-01-08T03:58:33.397Z,2.59
2023-01-08T04:01:05.592Z,2.58
2023-01-08T04:03:38.267Z,2.61
2023-01-08T04:06:10.745Z,2.56
2023-01-08T04:08:42.657Z,2.55
2023-01-08T04:11:14.671Z,2.70
2023-01-08T04:13:46.638Z,2.59
2023-01-08T04:16:18.729Z,2.80
2023-01-08T04:18:50.822Z,2.61
2023-01-08T04:21:22.766Z,2.52
2023-01-08T04:23:55.756Z,2.67
2023-01-08T04:26:27.705Z,2.63
2023-01-08T04:29:02.401Z,2.66
2023-01-08T04:31:34.324Z,2.55
2023-01-08T04:34:06.345Z,2.64
2023-01-08T04:36:38.618Z,2.51
2023-01-08T04:39:11.660Z,2.49
2023-01-08T04:41:43.502Z,2.63
2023-01-08T04:44:15.432Z,2.56
2023-01-08T04:46:47.395Z,2.65
2023-01-08T04:49:19.421Z,2.58
2023-01-08T04:51:51.372Z,2.55
2023-01-08T04:54:23.383Z,2.53
2023-01-08T04:56:55.366Z,2.48
2023-01-08T04:59:27.337Z,2.59
2023-01-08T05:01:59.473Z,2.62
2023-01-08T05:04:31.752Z,2.62
2023-01-08T05:07:04.651Z,2.58
2023-01-08T05:09:36.613Z,2.44
2023-01-08T05:12:08.620Z,2.57
2023-01-08T05:14:40.552Z,2.44
2023-01-08T05:17:12.515Z,2.53
2023-01-08T05:19:44.476Z,2.45
2023-01-08T05:22:16.460Z,2.50
2023-01-08T05:24:48.371Z,2.59
2023-01-08T05:27:20.749Z,2.63
2023-01-08T05:29:52.840Z,2.55
2023-01-08T05:32:24.785Z,2.37
2023-01-08T05:34:57.092Z,2.59
2023-01-08T05:37:29.005Z,2.46
2023-01-08T05:40:01.016Z,2.40
2023-01-08T05:42:35.594Z,2.44
2023-01-08T05:45:08.417Z,2.51
2023-01-08T05:47:40.394Z,2.32
2023-01-08T05:50:12.445Z,2.42
2023-01-08T05:52:44.727Z,2.35
2023-01-08T05:55:16.754Z,2.43
2023-01-08T05:57:48.741Z,2.40
2023-01-08T06:00:20.960Z,2.45
2023-01-08T06:02:52.923Z,2.40
2023-01-08T06:05:25.089Z,2.40
2023-01-08T06:07:57.836Z,2.25
2023-01-08T06:10:29.676Z,2.32
2023-01-08T06:13:02.666Z,2.21
2023-01-08T06:15:34.676Z,2.24
2023-01-08T06:18:06.839Z,2.23
2023-01-08T06:20:38.878Z,2.29
2023-01-08T06:23:10.915Z,2.13
2023-01-08T06:25:42.796Z,2.12
2023-01-08T06:28:14.628Z,1.95
2023-01-08T06:30:46.528Z,2.21
2023-01-08T06:33:21.180Z,2.02
2023-01-08T06:35:53.489Z,2.11
2023-01-08T06:38:25.353Z,1.92
2023-01-08T06:40:57.219Z,2.04
2023-01-08T06:43:29.208Z,2.03
2023-01-08T06:46:01.644Z,2.10
2023-01-08T06:48:33.611Z,1.85
2023-01-08T06:51:06.022Z,2.02
2023-01-08T06:53:37.993Z,2.07
2023-01-08T06:56:11.401Z,2.14
2023-01-08T06:58:43.386Z,2.12
2023-01-08T07:01:16.983Z,2.00
2023-01-08T07:03:49.322Z,1.97
2023-01-08T07:06:22.538Z,2.04
2023-01-08T07:08:54.492Z,2.01
2023-01-08T07:11:26.489Z,2.03
2023-01-08T07:13:58.434Z,2.01
2023-01-08T07:16:30.439Z,2.02
2023-01-08T07:19:02.399Z,2.05
2023-01-08T07:21:34.560Z,2.10
2023-01-08T07:24:07.934Z,2.23
2023-01-08T07:26:40.166Z,2.30
2023-01-08T07:29:12.012Z,2.32
2023-01-08T07:31:44.027Z,2.20
2023-01-08T07:34:16.133Z,2.11
2023-01-08T07:36:48.068Z,2.23
2023-01-08T07:39:20.032Z,2.33
2023-01-08T07:41:51.953Z,2.41
2023-01-08T07:44:24.007Z,2.41
2023-01-08T07:46:56.003Z,2.27
2023-01-08T07:49:27.989Z,2.37
2023-01-08T07:51:59.946Z,2.45
2023-01-08T07:54:31.879Z,2.33
2023-01-08T07:57:03.918Z,2.43
2023-01-08T07:59:35.812Z,2.40
2023-01-08T08:02:07.968Z,2.30
2023-01-08T08:04:40.007Z,2.37
2023-01-08T08:07:11.972Z,2.37
2023-01-08T08:09:43.935Z,2.35
2023-01-08T08:12:15.880Z,2.20
2023-01-08T08:14:47.841Z,2.36
2023-01-08T08:17:19.878Z,2.30
2023-01-08T08:19:51.848Z,2.32
2023-01-08T08:22:23.798Z,2.34
2023-01-08T08:24:55.759Z,2.50
2023-01-08T08:27:27.739Z,2.49
2023-01-08T08:30:00.105Z,2.46
2023-01-08T08:32:32.059Z,2.61
2023-01-08T08:35:05.803Z,2.66
2023-01-08T08:37:37.829Z,2.66
2023-01-08T08:40:10.262Z,2.57
2023-01-08T08:42:42.175Z,2.69
2023-01-08T08:45:14.389Z,2.67
2023-01-08T08:47:46.387Z,2.67
2023-01-08T08:50:18.901Z,2.86
2023-01-08T08:52:50.840Z,2.70
2023-01-08T08:55:22.860Z,2.30
2023-01-08T08:57:54.798Z,2.78
2023-01-08T09:00:26.723Z,2.80
2023-01-08T09:02:58.905Z,2.79
2023-01-08T09:05:30.931Z,3.08
2023-01-08T09:08:02.844Z,2.98
2023-01-08T09:10:36.589Z,3.05
2023-01-08T09:13:09.367Z,3.08
2023-01-08T09:15:41.318Z,3.21
2023-01-08T09:18:15.838Z,3.16
2023-01-08T09:20:48.182Z,3.08
2023-01-08T09:23:20.338Z,3.00
2023-01-08T09:26:00.263Z,3.25
2023-01-08T09:28:32.840Z,3.33
2023-01-08T09:31:05.396Z,2.97
2023-01-08T09:33:37.402Z,3.06
2023-01-08T09:36:11.974Z,3.26
2023-01-08T09:38:45.295Z,3.27
2023-01-08T09:41:27.115Z,3.23
2023-01-08T09:44:01.438Z,3.29
2023-01-08T09:46:35.016Z,3.27
2023-01-08T09:49:11.417Z,3.01
2023-01-08T09:51:43.609Z,3.01
2023-01-08T09:54:18.008Z,2.95
2023-01-08T09:56:50.117Z,2.83
2023-01-08T09:59:22.957Z,3.16
2023-01-08T10:01:55.255Z,3.02
2023-01-08T10:04:30.318Z,3.07
2023-01-08T10:07:16.170Z,3.30
2023-01-08T10:09:50.576Z,3.32
2023-01-08T10:12:30.882Z,3.24
2023-01-08T10:15:06.091Z,3.14
2023-01-08T10:17:41.028Z,3.25
2023-01-08T10:20:20.979Z,3.34
2023-01-08T10:22:57.236Z,3.25
2023-01-08T10:25:29.309Z,3.06
2023-01-08T10:28:03.546Z,3.07
2023-01-08T10:30:38.504Z,3.14
2023-01-08T10:33:25.756Z,3.23
2023-01-08T10:36:03.836Z,3.16
2023-01-08T10:38:48.624Z,3.31
2023-01-08T10:41:21.854Z,3.41
2023-01-08T10:44:02.164Z,3.37
2023-01-08T10:46:41.916Z,3.53
2023-01-08T10:49:29.308Z,3.41
2023-01-08T10:52:01.708Z,3.05
2023-01-08T10:54:39.792Z,3.32
2023-01-08T10:57:28.726Z,3.17
2023-01-08T11:00:00.756Z,3.28
2023-01-08T11:02:38.141Z,3.28
2023-01-08T11:05:11.773Z,3.25
2023-01-08T11:07:48.148Z,3.03
2023-01-08T11:10:23.542Z,3.23
2023-01-08T11:12:57.990Z,3.06
2023-01-08T11:15:34.849Z,3.32
2023-01-08T11:18:27.871Z,3.15
2023-01-08T11:21:11.372Z,3.30
2023-01-08T11:23:43.307Z,3.31
2023-01-08T11:26:20.910Z,3.28
2023-01-08T11:29:11.009Z,3.19
2023-01-08T11:32:08.756Z,3.32
2023-01-08T11:35:05.444Z,3.40
2023-01-08T11:37:40.714Z,2.92
2023-01-08T11:40:18.214Z,3.10
2023-01-08T11:43:14.496Z,3.38
2023-01-08T11:45:49.377Z,3.32
2023-01-08T11:48:36.448Z,3.21
2023-01-08T11:51:08.376Z,3.38
2023-01-08T11:54:04.981Z,3.08
2023-01-08T11:56:48.824Z,3.12
2023-01-08T11:59:44.488Z,3.11
2023-01-08T12:02:44.751Z,3.17
2023-01-08T12:05:38.496Z,3.18
2023-01-08T12:08:28.309Z,3.11
2023-01-08T12:11:17.841Z,2.93
2023-01-08T12:14:07.212Z,3.11
2023-01-08T12:17:09.945Z,3.07
2023-01-08T12:20:08.064Z,3.28
2023-01-08T12:23:00.538Z,3.15
2023-01-08T12:25:43.460Z,3.16
2023-01-08T12:29:09.575Z,3.08
2023-01-08T12:31:46.356Z,3.03
2023-01-08T12:34:46.674Z,2.95
2023-01-08T12:37:31.097Z,2.71
2023-01-08T12:40:22.720Z,3.11
2023-01-08T12:43:00.957Z,3.07
2023-01-08T12:45:40.982Z,3.07
2023-01-08T12:48:20.842Z,3.20
2023-01-08T12:51:21.365Z,3.19
2023-01-08T12:54:03.235Z,3.16
2023-01-08T12:57:25.036Z,3.23
2023-01-08T13:00:05.344Z,3.06
2023-01-08T13:03:03.474Z,3.14
2023-01-08T13:05:37.959Z,3.15
2023-01-08T13:08:34.526Z,3.14
2023-01-08T13:11:07.883Z,3.15
2023-01-08T13:13:45.428Z,3.09
2023-01-08T13:16:22.423Z,2.98
2023-01-08T13:19:02.914Z,3.19
2023-01-08T13:21:39.772Z,3.03
2023-01-08T13:24:37.421Z,3.03
2023-01-08T13:27:15.199Z,3.17
2023-01-08T13:29:51.485Z,3.03
2023-01-08T13:32:43.262Z,3.18
2023-01-08T13:35:15.260Z,3.21
2023-01-08T13:37:51.876Z,3.06
2023-01-08T13:40:46.425Z,3.14
2023-01-08T13:43:31.794Z,3.00
2023-01-08T13:46:03.839Z,3.07
2023-01-08T13:48:39.762Z,2.95
2023-01-08T13:51:34.329Z,3.12
2023-01-08T13:54:33.243Z,3.16
2023-01-08T13:57:12.912Z,3.03
2023-01-08T13:59:57.759Z,2.92
2023-01-08T14:02:32.891Z,2.91
2023-01-08T14:05:19.495Z,2.97
2023-01-08T14:07:52.013Z,2.90
2023-01-08T14:10:24.610Z,2.69
2023-01-08T14:13:08.861Z,2.72
2023-01-08T14:15:40.895Z,2.85
2023-01-08T14:18:14.553Z,2.69
2023-01-08T14:20:50.813Z,2.60
2023-01-08T14:23:30.651Z,2.49
2023-01-08T14:26:09.014Z,2.73
2023-01-08T14:28:52.039Z,2.81
2023-01-08T14:31:26.956Z,2.73
2023-01-08T14:34:00.939Z,2.74
2023-01-08T14:36:33.121Z,2.55
2023-01-08T14:39:11.756Z,2.70
2023-01-08T14:42:02.063Z,2.46
2023-01-08T14:44:40.423Z,2.54
2023-01-08T14:47:18.558Z,2.45
2023-01-08T14:49:54.337Z,2.51
2023-01-08T14:52:26.759Z,2.22
2023-01-08T14:55:03.451Z,2.46
2023-01-08T14:57:35.378Z,2.40
2023-01-08T15:00:14.931Z,2.56
2023-01-08T15:02:48.706Z,2.46
2023-01-08T15:05:28.870Z,2.35
2023-01-08T15:08:22.442Z,2.48
2023-01-08T15:11:00.628Z,2.58
2023-01-08T15:13:35.247Z,2.70
2023-01-08T15:16:35.460Z,2.44
2023-01-08T15:19:11.933Z,2.59
2023-01-08T15:21:52.009Z,2.59
2023-01-08T15:24:34.648Z,2.44
2023-01-08T15:27:10.558Z,2.48
2023-01-08T15:29:51.667Z,2.55
2023-01-08T15:32:24.334Z,2.16
2023-01-08T15:34:56.336Z,2.32
2023-01-08T15:37:28.571Z,2.43
2023-01-08T15:40:01.040Z,2.35
2023-01-08T15:42:52.503Z,2.55
2023-01-08T15:45:32.158Z,2.49
2023-01-08T15:48:05.097Z,2.42
2023-01-08T15:50:40.711Z,2.36
2023-01-08T15:53:17.781Z,2.33
2023-01-08T15:55:50.142Z,2.38
2023-01-08T15:58:22.000Z,2.03
2023-01-08T16:00:53.986Z,2.15
2023-01-08T16:03:26.217Z,2.25
2023-01-08T16:05:58.180Z,2.38
2023-01-08T16:08:30.133Z,2.35
2023-01-08T16:11:02.120Z,2.41
2023-01-08T16:13:34.137Z,1.93
2023-01-08T16:16:14.904Z,2.28
2023-01-08T16:18:46.828Z,2.33
2023-01-08T16:21:18.807Z,2.04
2023-01-08T16:23:50.898Z,2.56
2023-01-08T16:26:22.820Z,1.98
2023-01-08T16:28:55.518Z,2.48
2023-01-08T16:31:27.563Z,2.44
2023-01-08T16:34:03.703Z,2.29
2023-01-08T16:36:36.347Z,2.44
2023-01-08T16:39:08.321Z,2.30
2023-01-08T16:41:40.459Z,2.44
2023-01-08T16:44:26.901Z,2.44
2023-01-08T16:47:01.698Z,2.33
2023-01-08T16:49:33.877Z,2.31
2023-01-08T16:52:06.012Z,2.43
2023-01-08T16:54:38.192Z,2.38
2023-01-08T16:57:10.159Z,2.44
2023-01-08T16:59:42.140Z,2.33
2023-01-08T17:02:14.137Z,2.36
2023-01-08T17:04:46.051Z,2.49
2023-01-08T17:07:18.070Z,1.99
2023-01-08T17:09:50.031Z,2.11
2023-01-08T17:12:24.793Z,2.44
2023-01-08T17:14:56.819Z,2.27
2023-01-08T17:17:28.776Z,2.45
2023-01-08T17:20:00.804Z,2.50
2023-01-08T17:22:32.901Z,2.52
2023-01-08T17:25:05.268Z,2.53
2023-01-08T17:27:37.422Z,2.54
2023-01-08T17:30:11.367Z,2.66
2023-01-08T17:32:43.298Z,2.42
2023-01-08T17:35:15.307Z,2.65
2023-01-08T17:37:47.368Z,2.56
2023-01-08T17:40:19.395Z,2.60
2023-01-08T17:42:51.365Z,2.64
2023-01-08T17:45:23.532Z,2.58
2023-01-08T17:47:55.419Z,2.52
2023-01-08T17:50:27.303Z,2.69
2023-01-08T17:53:00.037Z,2.75
2023-01-08T17:55:31.955Z,2.36
2023-01-08T17:58:03.841Z,2.53
2023-01-08T18:00:35.716Z,2.69
2023-01-08T18:03:07.575Z,2.69
2023-01-08T18:05:39.411Z,2.77
2023-01-08T18:08:11.288Z,2.75
2023-01-08T18:10:43.125Z,2.63
2023-01-08T18:13:15.254Z,2.72
2023-01-08T18:15:47.108Z,2.70
2023-01-08T18:18:19.019Z,2.76
2023-01-08T18:20:54.692Z,2.81
2023-01-08T18:23:26.795Z,2.70
2023-01-08T18:26:05.168Z,2.79
2023-01-08T18:28:47.228Z,2.85
2023-01-08T18:31:19.442Z,2.59
2023-01-08T18:33:52.693Z,2.81
2023-01-08T18:36:24.689Z,2.62
2023-01-08T18:38:57.835Z,2.61
2023-01-08T18:41:48.197Z,2.68
2023-01-08T18:44:20.221Z,2.67
2023-01-08T18:46:52.226Z,2.71
2023-01-08T18:49:24.862Z,2.65
2023-01-08T18:51:56.854Z,2.52
2023-01-08T18:54:29.224Z,2.74
2023-01-08T18:57:01.271Z,2.69
2023-01-08T18:59:33.300Z,2.78
2023-01-08T19:02:05.677Z,2.71
2023-01-08T19:04:37.643Z,2.69
2023-01-08T19:07:09.602Z,2.70
2023-01-08T19:09:41.684Z,2.71
2023-01-08T19:12:13.671Z,2.71
2023-01-08T19:14:47.084Z,2.86
2023-01-08T19:17:19.205Z,2.87
2023-01-08T19:19:51.236Z,2.88
2023-01-08T19:22:26.997Z,2.88
2023-01-08T19:24:59.576Z,2.95
2023-01-08T19:27:31.524Z,2.93
2023-01-08T19:30:04.472Z,2.93
2023-01-08T19:32:36.590Z,2.83
2023-01-08T19:35:08.957Z,2.91
2023-01-08T19:37:40.796Z,3.07
2023-01-08T19:40:13.286Z,2.94
2023-01-08T19:43:03.886Z,2.95
2023-01-08T19:45:37.617Z,2.99
2023-01-08T19:48:09.601Z,3.03
2023-01-08T19:50:41.898Z,2.99
2023-01-08T19:53:14.660Z,3.03
2023-01-08T19:55:46.716Z,2.98
2023-01-08T19:58:19.792Z,3.06
2023-01-08T20:00:56.465Z,3.13
2023-01-08T20:03:29.037Z,3.03
2023-01-08T20:06:00.883Z,3.10
2023-01-08T20:08:32.816Z,3.10
2023-01-08T20:11:07.296Z,3.18
2023-01-08T20:13:39.521Z,3.12
2023-01-08T20:16:14.009Z,3.02
2023-01-08T20:18:46.117Z,3.11
2023-01-08T20:21:24.343Z,3.14
2023-01-08T20:24:02.720Z,3.16
2023-01-08T20:26:36.456Z,2.99
2023-01-08T20:29:08.723Z,3.21
2023-01-08T20:31:41.363Z,3.20
2023-01-08T20:34:16.322Z,3.11
2023-01-08T20:36:48.325Z,2.93
2023-01-08T20:39:20.313Z,2.98
2023-01-08T20:41:55.900Z,2.95
2023-01-08T20:44:35.945Z,2.94
2023-01-08T20:47:07.848Z,3.10
2023-01-08T20:49:39.915Z,3.06
2023-01-08T20:52:11.801Z,2.92
2023-01-08T20:54:43.734Z,3.18
2023-01-08T20:57:15.643Z,3.00
2023-01-08T20:59:47.752Z,3.04
2023-01-08T21:02:20.927Z,3.10
2023-01-08T21:04:55.259Z,2.87
2023-01-08T21:07:30.074Z,3.00
2023-01-08T21:10:02.290Z,3.05
2023-01-08T21:12:35.939Z,3.04
2023-01-08T21:15:09.067Z,3.11
2023-01-08T21:17:40.936Z,2.90
2023-01-08T21:20:13.134Z,2.88
2023-01-08T21:22:45.505Z,3.06
2023-01-08T21:25:19.220Z,3.05
2023-01-08T21:27:51.096Z,2.93
2023-01-08T21:30:23.051Z,3.03
2023-01-08T21:32:54.905Z,2.96
2023-01-08T21:35:27.126Z,3.04
2023-01-08T21:37:59.072Z,3.07
2023-01-08T21:40:31.077Z,3.09
2023-01-08T21:43:21.399Z,2.99
2023-01-08T21:46:05.492Z,3.12
2023-01-08T21:48:37.410Z,2.90
2023-01-08T21:51:29.400Z,3.09
2023-01-08T21:54:01.295Z,3.08
2023-01-08T21:56:33.679Z,2.87
2023-01-08T21:59:05.618Z,3.07
2023-01-08T22:01:37.655Z,2.85
2023-01-08T22:04:09.688Z,2.89
2023-01-08T22:06:43.141Z,3.01
2023-01-08T22:09:15.115Z,2.98
2023-01-08T22:11:47.330Z,2.92
2023-01-08T22:14:19.320Z,2.98
2023-01-08T22:16:51.542Z,2.94
2023-01-08T22:19:23.560Z,2.97
2023-01-08T22:21:55.497Z,2.97
2023-01-08T22:24:27.512Z,2.98
2023-01-08T22:26:59.556Z,3.01
2023-01-08T22:29:31.558Z,2.98
2023-01-08T22:32:04.172Z,2.98
2023-01-08T22:34:36.184Z,3.07
2023-01-08T22:37:08.323Z,2.68
2023-01-08T22:39:40.286Z,2.89
2023-01-08T22:42:12.224Z,2.87
2023-01-08T22:44:44.127Z,3.02
2023-01-08T22:47:16.033Z,3.05
2023-01-08T22:49:49.047Z,3.11
2023-01-08T22:52:21.090Z,3.07
2023-01-08T22:54:55.084Z,2.87
2023-01-08T22:57:27.059Z,2.98
2023-01-08T22:59:58.912Z,3.03
2023-01-08T23:02:30.774Z,2.78
2023-01-08T23:05:02.800Z,2.77
2023-01-08T23:07:34.741Z,3.05
2023-01-08T23:10:07.459Z,2.95
2023-01-08T23:12:39.296Z,2.95
2023-01-08T23:15:11.390Z,2.93
2023-01-08T23:17:52.135Z,2.88
2023-01-08T23:20:25.311Z,3.10
2023-01-08T23:22:57.279Z,3.01
2023-01-08T23:25:30.468Z,3.11
2023-01-08T23:28:02.442Z,3.00
2023-01-08T23:30:34.473Z,3.01
2023-01-08T23:33:06.435Z,2.88
2023-01-08T23:35:38.375Z,2.81
2023-01-08T23:38:10.326Z,2.86
2023-01-08T23:40:43.522Z,2.90
2023-01-08T23:43:15.493Z,2.98
2023-01-08T23:45:47.456Z,2.63
2023-01-08T23:48:19.459Z,2.62
2023-01-08T23:50:51.436Z,2.86
2023-01-08T23:53:23.739Z,2.93
2023-01-08T23:55:55.695Z,2.91
2023-01-08T23:58:27.848Z,3.01
